Skip Navigation Links
NOAA logo - Click to go to the NOAA homepage
NOAA's National Weather Service
Alaska Aviation Weather Unit
  NWS logo - Click to go to the NWS homepage
Left Navbar Graphic     03 AKDT = 11 GMT

   
NOAA is celebrating 200 years of science, service, and stewardship. Visit the NOAA 200th celebration Web site to learn more.
USA.gov is the U.S. Government's official Web portal to all Federal, state and local government Web resources and services.
Facebook
NWS on Facebook

AAWU Home :: Display TAF Add Bookmark
TAF PASN 290532Z 2906/3006 03011KT P6SM SKC
     FM291500 05015KT P6SM SKC=

METAR PASN 290553Z AUTO 03008KT 10SM CLR M08/M12 A2987 RMK AO2 SLP117 T10781117 11022 21078 51007 TSNO= METAR PASN 290653Z AUTO 03007KT 10SM CLR M09/M13 A2988 RMK AO2 SLP119 I1000 T10941128 TSNO= METAR PASN 290753Z AUTO 03005KT 10SM CLR M10/M12 A2988 RMK AO2 SLP121 T11001122 TSNO= METAR PASN 290853Z AUTO 04006KT 10SM CLR M10/M12 A2988 RMK AO2 SLP119 I3000 T11001117 410221111 50002 TSNO= METAR PASN 290953Z AUTO 02006KT 10SM CLR M10/M12 A2987 RMK AO2 SLP117 T11001117 TSNO= METAR PASN 291053Z AUTO 03006KT 10SM CLR M10/M12 A2987 RMK AO2 SLP118 T11001117 TSNO=
 Alaska TAF Map

NOAA's National Weather Service
Alaska Aviation Weather Unit
6930 Sand Lake Road
Anchorage, AK 99502-1845
Disclaimer
Credits
Glossary
Privacy Policy
About Us
Career Opportunities
Contact AAWU Internet Services Site last modified: April, 17th 2012